deformed-offering

Nearby METAR Reports

 

KSJC - San Jose, California, USA
Distance from station: NE 9mi, 14km
Updated: Sat, 23-Jan-2021 4:53am PST
Overcast
Overcast
 Wind from calm
Wind: Calm
Temperature: 43°F , 6°C
Dew Point: 39°F , 4°C
Humidity: 87%
Barometer: 29.92 inHg , 1013.2 hPa
Clouds: Overcast
Visibility: 10 miles , 16 km
Cloud details: Partly Cloudy 1300 ft
Mostly Cloudy 4600 ft
Overcast 11000 ft
2021/01/23 12:53 KSJC 231253Z AUTO 00000KT 10SM SCT013 BKN046 OVC110 06/04 A2992 RMK AO2 SLP132 T00610044
KRHV - San Jose/Reid, California, USA
Distance from station: ENE 12mi, 19km
Updated: Fri, 22-Jan-2021 9:50pm PST
NOT Current
Mostly Cloudy
Mostly Cloudy
 Wind from calm
Wind: Calm
Temperature: 46°F , 8°C
Dew Point: 45°F , 7°C
Humidity: 93%
Barometer: 29.90 inHg , 1012.5 hPa
Clouds: Mostly Cloudy
Visibility: 10 miles , 16 km
Cloud details: Few Clouds 1000 ft
Mostly Cloudy 5000 ft
2021/01/23 05:50 KRHV 230550Z 00000KT 10SM FEW010 BKN050 08/07 A2990 RMK LAST
 
KPAO - Palo Alto, California, USA
Distance from station: NNW 14mi, 23km
Updated: Fri, 22-Jan-2021 8:47pm PST
NOT Current
Mostly Cloudy
Mostly Cloudy
 Wind from calm
Wind: Calm
Temperature: 45°F , 7°C
Dew Point: 43°F , 6°C
Humidity: 93%
Barometer: 29.89 inHg , 1012.2 hPa
Clouds: Mostly Cloudy
Visibility: 10 miles , 16 km
Cloud details: Mostly Cloudy 10000 ft
2021/01/23 04:47 KPAO 230447Z 00000KT 10SM BKN100 07/06 A2989 RMK LAST
KSQL - San Carlos Airpo, California, USA
Distance from station: NW 21mi, 34km
Updated: Sat, 23-Jan-2021 5:15am PST
Overcast
Overcast
 
Temperature: 48°F , 9°C
Dew Point: 45°F , 7°C
Humidity: 87%
Barometer: 29.94 inHg , 1013.9 hPa
Clouds: Overcast
Visibility: 10 miles , 16 km
Cloud details: Partly Cloudy 4400 ft
Overcast 5500 ft
2021/01/23 13:15 KSQL 231315Z AUTO 10SM SCT044 OVC055 09/07 A2994 RMK AO2
 
KWVI - Watsonville, California, USA
Distance from station: SSE 27mi, 44km
Updated: Sat, 23-Jan-2021 5:08am PST
Mostly Cloudy
Mostly Cloudy
 Wind from NW
Wind: NW 5 mph , 7 km/h
Temperature: 39°F , 4°C
Wind Chill: 35°F , 2°C
Dew Point: 37°F , 3°C
Humidity: 93%
Barometer: 29.92 inHg , 1013.2 hPa
Clouds: Mostly Cloudy
Visibility: 10 miles , 16 km
Cloud details: Partly Cloudy 400 ft
Mostly Cloudy 12000 ft
2021/01/23 13:08 KWVI 231308Z AUTO 32004KT 10SM SCT004 BKN120 04/03 A2992 RMK AO2 T00390033
KHWD - Hayward, California, USA
Distance from station: N 28mi, 44km
Updated: Sat, 23-Jan-2021 4:54am PST
Overcast
Overcast
 Wind from calm
Wind: Calm
Temperature: 46°F , 8°C
Dew Point: 39°F , 4°C
Humidity: 76%
Barometer: 29.93 inHg , 1013.5 hPa
Clouds: Overcast
Visibility: 10 miles , 16 km
Cloud details: Overcast 5500 ft
2021/01/23 12:54 KHWD 231254Z AUTO 00000KT 10SM OVC055 08/04 A2993 RMK AO2 SLP144 T00780044
 
KSFO - San Francisco, California, USA
Distance from station: NW 30mi, 49km
Updated: Sat, 23-Jan-2021 4:56am PST
Partly Cloudy
Partly Cloudy
 Wind from NNE
Wind: NNE 12 mph , 19 km/h
Temperature: 50°F , 10°C
Wind Chill: 45°F , 7°C
Dew Point: 45°F , 7°C
Humidity: 82%
Barometer: 29.93 inHg , 1013.5 hPa
Clouds: Partly Cloudy
Visibility: 10 miles , 16 km
Cloud details: Few Clouds 1300 ft
Few Clouds 2700 ft
Partly Cloudy 5000 ft
2021/01/23 12:56 KSFO 231256Z 03010KT 10SM FEW013 FEW027 SCT050 10/07 A2993 RMK AO2 SLP136 T01000067 $
KHAF - Half Moon Bay, California, USA
Distance from station: WNW 31mi, 50km
Updated: Sat, 23-Jan-2021 5:15am PST
Overcast
Overcast
 Wind from calm
Wind: Calm
Temperature: 46°F , 8°C
Dew Point: 41°F , 5°C
Humidity: 82%
Barometer: 29.93 inHg , 1013.5 hPa
Clouds: Overcast
Visibility: 10 miles , 16 km
Cloud details: Partly Cloudy 4100 ft
Mostly Cloudy 4900 ft
Overcast 9500 ft
2021/01/23 13:15 KHAF 231315Z AUTO 00000KT 10SM SCT041 BKN049 OVC095 08/05 A2993 RMK AO2
 
KLVK - Livermore, California, USA
Distance from station: NNE 31mi, 51km
Updated: Sat, 23-Jan-2021 5:05am PST
Fog, Overcast
Fog, Overcast
 Wind from calm
Wind: Calm
Temperature: 39°F , 4°C
Dew Point: 39°F , 4°C
Humidity: 100%
Barometer: 29.92 inHg , 1013.2 hPa
Summary: Fog
Clouds: Overcast
Visibility: 1/4 mile , 0.4 km
Cloud details: Overcast 200 ft
2021/01/23 13:05 KLVK 231305Z AUTO 00000KT 1/4SM FG VV002 04/04 A2992 RMK AO2 T00440044
KOAK - Oakland, California, USA
Distance from station: NNW 33mi, 53km
Updated: Sat, 23-Jan-2021 4:53am PST
Mostly Cloudy
Mostly Cloudy
 Wind from NNW
Wind: NNW 3 mph , 6 km/h
Temperature: 48°F , 9°C
Dew Point: 43°F , 6°C
Humidity: 82%
Barometer: 29.95 inHg , 1014.2 hPa
Clouds: Mostly Cloudy
Visibility: 10 miles , 16 km
Cloud details: Few Clouds 1200 ft
Mostly Cloudy 1600 ft
Mostly Cloudy 11000 ft
2021/01/23 12:53 KOAK 231253Z 33003KT 10SM FEW012 BKN016 BKN110 09/06 A2995 RMK AO2 SLP140 T00940056
 
KCVH - Hollister Muni, California, USA
Distance from station: SE 42mi, 68km
Updated: Sat, 23-Jan-2021 5:15am PST
Mist, Overcast
Mist, Overcast
 Wind from NW
Wind: NW 6 mph , 9 km/h
Temperature: 41°F , 5°C
Wind Chill: 37°F , 3°C
Dew Point: 41°F , 5°C
Humidity: 100%
Barometer: 29.92 inHg , 1013.2 hPa
Summary: Mist
Clouds: Overcast
Visibility: 1 1/4 miles , 2 km
Cloud details: Overcast 100 ft
2021/01/23 13:15 KCVH 231315Z AUTO 32005KT 1 1/4SM BR OVC001 05/05 A2992 RMK A01
KSNS - Salinas, California, USA
Distance from station: SSE 48mi, 77km
Updated: Sat, 23-Jan-2021 4:53am PST
Few Clouds
Few Clouds
 Wind from calm
Wind: Calm
Temperature: 46°F , 8°C
Dew Point: 45°F , 7°C
Humidity: 93%
Barometer: 29.90 inHg , 1012.5 hPa
Clouds: Few Clouds
Visibility: 10 miles , 16 km
Cloud details: Few Clouds 3200 ft
Few Clouds 4500 ft
2021/01/23 12:53 KSNS 231253Z AUTO 00000KT 10SM FEW032 FEW045 08/07 A2990 RMK AO2 SLP134 T00780067
 
KMRY - Monterey, California, USA
Distance from station: SSE 49mi, 78km
Updated: Sat, 23-Jan-2021 4:54am PST
Clear
Clear
 Wind from ESE
Wind: ESE 6 mph , 9 km/h
Temperature: 45°F , 7°C
Wind Chill: 42°F , 6°C
Dew Point: 43°F , 6°C
Humidity: 93%
Barometer: 29.90 inHg , 1012.5 hPa
Clouds: Clear
Visibility: 10 miles , 16 km
2021/01/23 12:54 KMRY 231254Z AUTO 12005KT 10SM CLR 07/06 A2990 RMK AO2 SLP137 T00670056
KCCR - Concord, California, USA
Distance from station: N 50mi, 81km
Updated: Sat, 23-Jan-2021 4:59am PST
Overcast
Overcast
 Wind from NNW
Wind: NNW 3 mph , 6 km/h
Temperature: 46°F , 8°C
Dew Point: 43°F , 6°C
Humidity: 87%
Barometer: 29.94 inHg , 1013.9 hPa
Clouds: Overcast
Visibility: 8 miles , 13 km
Cloud details: Few Clouds 900 ft
Overcast 1500 ft
2021/01/23 12:59 KCCR 231259Z AUTO 33003KT 8SM FEW009 OVC015 08/06 A2994 RMK AO2 T00780056
deformed-offering